Time;durP1;ratioP1;P1;durP2;ratioP2;P2;SDS_P1;SDS_P2;PMS_P1;PMS_P2;Temp;Humidity;BMP_temperature;BMP_pressure;BME280_temperature;BME280_humidity;BME280_pressure;Samples;Min_cycle;Max_cycle;Signal;HPM_P1;HPM_P2
2023/09/04 00:09:19;;;;;;;0.98;0.77;;;;;;;;;;20800554;28;20772;-84
2023/09/04 00:19:21;;;;;;;1.10;0.93;;;;;;;;;;20810999;28;20313;-83
2023/09/04 00:29:23;;;;;;;1.27;1.00;;;;;;;;;;20815505;28;20324;-83
2023/09/04 00:39:25;;;;;;;1.63;1.23;;;;;;;;;;20878944;28;20259;-85
2023/09/04 00:49:27;;;;;;;2.63;1.00;;;;;;;;;;20834246;28;20293;-84
2023/09/04 00:59:29;;;;;;;1.40;0.93;;;;;;;;;;20844842;28;20213;-84
2023/09/04 01:09:34;;;;;;;2.00;1.30;;;;;;;;;;20860628;28;20297;-84
2023/09/04 01:19:38;;;;;;;1.67;0.90;;;20.80;99.90;;;;;;20867863;28;20224;-82
2023/09/04 01:29:57;;;;;;;2.87;1.00;;;;;;;;;;20810483;28;20590;-83
2023/09/04 01:39:59;;;;;;;1.63;1.10;;;;;;;;;;20808790;28;20286;-83
2023/09/04 01:50:01;;;;;;;1.93;1.20;;;;;;;;;;20834384;28;20241;-83
2023/09/04 02:00:04;;;;;;;1.70;1.30;;;;;;;;;;20809217;28;20240;-83
2023/09/04 02:10:16;;;;;;;2.23;1.10;;;;;;;;;;20799877;28;20229;-83
2023/09/04 02:20:18;;;;;;;1.73;1.17;;;;;;;;;;20755692;28;20216;-83
2023/09/04 02:30:20;;;;;;;1.83;1.27;;;;;;;;;;20807469;28;20283;-84
2023/09/04 02:40:25;;;;;;;2.03;1.47;;;;;;;;;;20807168;28;20250;-84
2023/09/04 02:50:26;;;;;;;2.20;1.00;;;;;;;;;;20834692;28;20234;-84
2023/09/04 03:00:40;;;;;;;1.90;1.20;;;;;;;;;;20819123;28;20298;-84
2023/09/04 03:10:45;;;;;;;1.90;1.30;;;;;;;;;;20797892;28;20291;-85
2023/09/04 03:20:48;;;;;;;2.50;1.20;;;;;;;;;;20851165;28;20264;-84
2023/09/04 03:30:50;;;;;;;1.63;1.30;;;;;;;;;;20832368;28;20261;-85
2023/09/04 03:40:55;;;;;;;5.33;1.20;;;;;;;;;;20837313;28;20442;-84
2023/09/04 03:51:02;;;;;;;2.73;1.20;;;;;;;;;;20815806;28;20312;-84
2023/09/04 04:01:04;;;;;;;1.67;1.10;;;;;;;;;;20798208;28;20378;-84
2023/09/04 04:11:06;;;;;;;2.27;1.20;;;;;;;;;;20801995;28;20740;-83
2023/09/04 04:21:08;;;;;;;2.40;1.73;;;;;;;;;;20771460;28;20309;-84
2023/09/04 04:31:10;;;;;;;3.23;1.27;;;;;;;;;;20766024;28;20232;-86
2023/09/04 04:41:13;;;;;;;2.07;1.33;;;;;;;;;;20806925;28;20242;-85
2023/09/04 04:51:15;;;;;;;1.70;1.10;;;;;;;;;;20803826;28;20774;-85
2023/09/04 05:01:17;;;;;;;1.77;1.40;;;;;;;;;;20782053;28;20327;-85
2023/09/04 05:11:19;;;;;;;1.73;1.30;;;;;;;;;;20815475;28;20237;-83
2023/09/04 05:21:21;;;;;;;2.47;1.43;;;;;;;;;;20724549;28;20223;-81
2023/09/04 05:31:22;;;;;;;2.33;1.50;;;;;;;;;;20803606;28;20595;-80
2023/09/04 05:41:25;;;;;;;2.90;1.00;;;;;;;;;;20806499;28;20275;-81
2023/09/04 05:51:27;;;;;;;4.23;1.60;;;;;;;;;;20803694;28;20288;-81
2023/09/04 06:01:30;;;;;;;4.20;1.57;;;;;;;;;;20808380;28;20215;-81
2023/09/04 06:11:32;;;;;;;2.30;1.40;;;;;;;;;;20779411;28;20761;-81
2023/09/04 06:21:34;;;;;;;2.07;1.33;;;;;;;;;;20790514;28;20224;-80
2023/09/04 06:31:35;;;;;;;2.03;1.20;;;;;;;;;;20737108;28;20271;-81
2023/09/04 06:41:37;;;;;;;3.83;2.00;;;;;;;;;;20831067;28;20272;-82
2023/09/04 06:51:39;;;;;;;5.80;1.80;;;;;;;;;;20769303;28;20228;-81
2023/09/04 07:01:40;;;;;;;1.80;1.20;;;;;;;;;;20816003;28;20594;-81
2023/09/04 07:11:42;;;;;;;2.10;1.70;;;;;;;;;;20786457;28;20229;-81
2023/09/04 07:21:44;;;;;;;2.07;1.40;;;;;;;;;;20814417;28;20232;-82
2023/09/04 07:31:46;;;;;;;3.67;1.80;;;;;;;;;;20792330;28;20349;-81
2023/09/04 07:41:48;;;;;;;4.37;1.70;;;;;;;;;;20801916;28;20227;-81
2023/09/04 07:51:51;;;;;;;1.67;1.30;;;;;;;;;;20817585;28;20301;-81
2023/09/04 08:01:52;;;;;;;2.50;1.53;;;;;;;;;;20818610;28;20297;-82
2023/09/04 08:11:54;;;;;;;3.37;1.47;;;;;;;;;;20844330;28;20250;-81
2023/09/04 08:21:59;;;;;;;2.10;1.40;;;;;;;;;;20844421;28;20237;-82
2023/09/04 08:32:00;;;;;;;2.90;1.70;;;;;;;;;;20812225;28;20250;-81
2023/09/04 08:42:07;;;;;;;3.30;1.70;;;;;;;;;;20834282;28;20204;-80
2023/09/04 08:52:10;;;;;;;1.77;1.20;;;;;;;;;;20838172;28;20279;-81
2023/09/04 09:02:15;;;;;;;1.93;1.43;;;22.40;99.90;;;;;;20829383;28;20229;-80
2023/09/04 09:12:18;;;;;;;2.03;1.40;;;;;;;;;;20784309;28;20228;-80
2023/09/04 09:22:20;;;;;;;1.97;1.13;;;;;;;;;;20812322;28;20717;-80
2023/09/04 09:32:22;;;;;;;1.77;1.40;;;;;;;;;;20822228;28;20241;-83
2023/09/04 09:42:25;;;;;;;2.00;1.40;;;;;;;;;;20820887;28;20300;-83
2023/09/04 09:52:27;;;;;;;2.15;1.05;;;;;;;;;;20852996;28;20647;-82
2023/09/04 10:02:29;;;;;;;1.10;0.80;;;;;;;;;;20825705;28;20684;-81
2023/09/04 10:12:31;;;;;;;2.60;0.80;;;;;;;;;;20815993;28;20235;-83
2023/09/04 10:22:41;;;;;;;0.95;0.77;;;;;;;;;;20834021;28;20219;-82
2023/09/04 10:32:44;;;;;;;1.17;0.73;;;;;;;;;;20718840;28;20234;-81
2023/09/04 10:42:45;;;;;;;0.95;0.60;;;;;;;;;;20775324;28;20229;-82
2023/09/04 10:52:47;;;;;;;1.27;0.70;;;;;;;;;;20808282;28;20244;-83
2023/09/04 11:02:52;;;;;;;1.10;0.70;;;;;;;;;;20820862;28;20232;-81
2023/09/04 11:12:54;;;;;;;2.78;0.60;;;;;;;;;;20812157;28;20560;-82
2023/09/04 11:22:57;;;;;;;1.10;0.57;;;;;;;;;;20792431;28;20217;-82
2023/09/04 11:33:01;;;;;;;0.90;0.50;;;;;;;;;;20798074;28;20240;-81
2023/09/04 11:43:03;;;;;;;0.80;0.60;;;;;;;;;;20851266;28;20288;-82
2023/09/04 11:53:05;;;;;;;0.60;0.50;;;26.20;99.90;;;;;;20837695;28;20234;-83
2023/09/04 12:03:07;;;;;;;1.25;0.45;;;;;;;;;;20799370;28;20608;-82
2023/09/04 12:13:09;;;;;;;1.38;0.60;;;26.40;99.90;;;;;;20834928;28;20238;-82
2023/09/04 12:23:11;;;;;;;0.65;0.40;;;;;;;;;;20830584;28;20741;-81
2023/09/04 12:33:19;;;;;;;0.70;0.47;;;;;;;;;;20821494;28;20246;-80
2023/09/04 12:43:20;;;;;;;1.35;0.65;;;;;;;;;;20830538;28;21022;-82
2023/09/04 12:53:22;;;;;;;1.00;0.60;;;;;;;;;;20844638;28;20243;-82
2023/09/04 13:03:24;;;;;;;1.23;0.75;;;;;;;;;;20858893;28;20288;-82
2023/09/04 13:13:26;;;;;;;1.15;0.70;;;;;;;;;;20834522;28;20227;-83
2023/09/04 13:23:30;;;;;;;0.95;0.60;;;;;;;;;;20817713;28;20736;-83
2023/09/04 13:33:33;;;;;;;1.00;0.60;;;;;;;;;;20756770;28;20230;-83
2023/09/04 13:43:34;;;;;;;4.20;1.58;;;;;;;;;;20770310;28;20234;-82
2023/09/04 13:53:36;;;;;;;1.20;0.80;;;;;;;;;;20842762;28;20292;-80
2023/09/04 14:03:38;;;;;;;2.38;0.77;;;;;;;;;;20837253;28;20302;-80
2023/09/04 14:13:40;;;;;;;1.63;0.60;;;;;;;;;;20799941;28;20238;-82
2023/09/04 14:23:42;;;;;;;1.20;0.80;;;;;;;;;;20823486;28;20226;-83
2023/09/04 14:33:44;;;;;;;0.80;0.50;;;;;;;;;;20858584;28;20248;-83
2023/09/04 14:43:46;;;;;;;1.23;0.70;;;;;;;;;;20825874;28;20578;-82
2023/09/04 14:53:51;;;;;;;0.90;0.68;;;;;;;;;;20845893;28;20233;-82
2023/09/04 15:03:53;;;;;;;1.48;0.88;;;;;;;;;;20823530;28;20216;-84
2023/09/04 15:13:55;;;;;;;1.60;0.80;;;;;;;;;;20853551;28;20233;-84
2023/09/04 15:23:57;;;;;;;1.25;0.80;;;;;;;;;;20810899;28;20225;-83
2023/09/04 15:33:58;;;;;;;1.33;0.70;;;;;;;;;;20821670;28;20237;-82
2023/09/04 15:44:00;;;;;;;3.53;0.63;;;;;;;;;;20824247;28;20806;-82
2023/09/04 15:54:04;;;;;;;0.93;0.55;;;;;;;;;;20840452;28;20283;-81
2023/09/04 16:04:06;;;;;;;1.63;0.50;;;;;;;;;;20818520;28;20268;-83
2023/09/04 16:14:08;;;;;;;1.15;0.60;;;;;;;;;;20852516;28;20291;-81
2023/09/04 16:24:10;;;;;;;2.33;0.65;;;;;;;;;;20817883;28;20272;-82
2023/09/04 16:34:12;;;;;;;1.65;0.73;;;;;;;;;;20796768;28;20252;-81
2023/09/04 16:44:13;;;;;;;1.35;0.60;;;;;;;;;;20804290;28;20239;-83
2023/09/04 16:54:15;;;;;;;1.30;0.60;;;;;;;;;;20812348;28;20735;-82
2023/09/04 17:04:18;;;;;;;1.85;0.63;;;;;;;;;;20824669;28;20234;-82
2023/09/04 17:14:19;;;;;;;1.00;0.60;;;;;;;;;;20805117;28;20253;-82
2023/09/04 17:24:21;;;;;;;1.90;1.70;;;;;;;;;;20819359;28;20223;-82
